sensor_id;sensor_type;location;lat;lon;timestamp;temperature;humidity
4376;DHT22;2202;50.866;12.750;2023-02-15T00:02:01;-0.80;94.70
4376;DHT22;2202;50.866;12.750;2023-02-15T00:04:29;-0.80;94.70
4376;DHT22;2202;50.866;12.750;2023-02-15T00:07:10;-0.90;94.80
4376;DHT22;2202;50.866;12.750;2023-02-15T00:09:37;-0.90;94.80
4376;DHT22;2202;50.866;12.750;2023-02-15T00:12:04;-0.90;94.80
4376;DHT22;2202;50.866;12.750;2023-02-15T00:14:31;-0.90;94.80
4376;DHT22;2202;50.866;12.750;2023-02-15T00:16:58;-0.90;94.80
4376;DHT22;2202;50.866;12.750;2023-02-15T00:19:25;-0.90;94.80
4376;DHT22;2202;50.866;12.750;2023-02-15T00:21:54;-0.90;94.70
4376;DHT22;2202;50.866;12.750;2023-02-15T00:24:21;-1.00;94.70
4376;DHT22;2202;50.866;12.750;2023-02-15T00:26:48;-1.00;94.70
4376;DHT22;2202;50.866;12.750;2023-02-15T00:29:17;-1.00;94.70
4376;DHT22;2202;50.866;12.750;2023-02-15T00:31:44;-1.00;94.70
4376;DHT22;2202;50.866;12.750;2023-02-15T00:34:13;-1.00;94.80
4376;DHT22;2202;50.866;12.750;2023-02-15T00:36:41;-1.00;94.70
4376;DHT22;2202;50.866;12.750;2023-02-15T00:39:09;-1.00;94.70
4376;DHT22;2202;50.866;12.750;2023-02-15T00:41:36;-1.10;94.70
4376;DHT22;2202;50.866;12.750;2023-02-15T00:44:04;-1.10;94.80
4376;DHT22;2202;50.866;12.750;2023-02-15T00:46:31;-1.10;94.90
4376;DHT22;2202;50.866;12.750;2023-02-15T00:48:58;-1.10;94.90
4376;DHT22;2202;50.866;12.750;2023-02-15T00:51:25;-1.10;94.80
4376;DHT22;2202;50.866;12.750;2023-02-15T00:53:53;-1.10;94.80
4376;DHT22;2202;50.866;12.750;2023-02-15T00:56:21;-1.10;94.80
4376;DHT22;2202;50.866;12.750;2023-02-15T00:58:48;-1.20;94.90
4376;DHT22;2202;50.866;12.750;2023-02-15T01:01:17;-1.20;94.80
4376;DHT22;2202;50.866;12.750;2023-02-15T01:03:44;-1.20;94.90
4376;DHT22;2202;50.866;12.750;2023-02-15T01:06:13;-1.30;94.80
4376;DHT22;2202;50.866;12.750;2023-02-15T01:08:40;-1.30;94.80
4376;DHT22;2202;50.866;12.750;2023-02-15T01:11:08;-1.30;94.80
4376;DHT22;2202;50.866;12.750;2023-02-15T01:13:40;-1.30;94.80
4376;DHT22;2202;50.866;12.750;2023-02-15T01:16:08;-1.30;94.80
4376;DHT22;2202;50.866;12.750;2023-02-15T01:18:35;-1.30;94.80
4376;DHT22;2202;50.866;12.750;2023-02-15T01:21:09;-1.40;94.70
4376;DHT22;2202;50.866;12.750;2023-02-15T01:23:36;-1.40;94.70
4376;DHT22;2202;50.866;12.750;2023-02-15T01:26:03;-1.40;94.70
4376;DHT22;2202;50.866;12.750;2023-02-15T01:28:31;-1.40;94.70
4376;DHT22;2202;50.866;12.750;2023-02-15T01:31:03;-1.40;94.80
4376;DHT22;2202;50.866;12.750;2023-02-15T01:33:30;-1.40;94.80
4376;DHT22;2202;50.866;12.750;2023-02-15T01:35:57;-1.50;94.70
4376;DHT22;2202;50.866;12.750;2023-02-15T01:38:24;-1.50;94.80
4376;DHT22;2202;50.866;12.750;2023-02-15T01:40:52;-1.50;94.90
4376;DHT22;2202;50.866;12.750;2023-02-15T01:43:19;-1.50;94.80
4376;DHT22;2202;50.866;12.750;2023-02-15T01:45:48;-1.50;94.80
4376;DHT22;2202;50.866;12.750;2023-02-15T01:48:20;-1.50;94.80
4376;DHT22;2202;50.866;12.750;2023-02-15T01:50:51;-1.50;94.80
4376;DHT22;2202;50.866;12.750;2023-02-15T01:53:22;-1.50;94.70
4376;DHT22;2202;50.866;12.750;2023-02-15T01:55:53;-1.50;94.70
4376;DHT22;2202;50.866;12.750;2023-02-15T01:58:23;-1.60;94.70
4376;DHT22;2202;50.866;12.750;2023-02-15T02:00:52;-1.60;94.80
4376;DHT22;2202;50.866;12.750;2023-02-15T02:03:27;-1.60;94.80
4376;DHT22;2202;50.866;12.750;2023-02-15T02:05:56;-1.60;94.80
4376;DHT22;2202;50.866;12.750;2023-02-15T02:08:24;-1.60;94.70
4376;DHT22;2202;50.866;12.750;2023-02-15T02:10:51;-1.60;94.70
4376;DHT22;2202;50.866;12.750;2023-02-15T02:13:18;-1.70;94.70
4376;DHT22;2202;50.866;12.750;2023-02-15T02:15:56;-1.70;94.70
4376;DHT22;2202;50.866;12.750;2023-02-15T02:18:37;-1.70;94.80
4376;DHT22;2202;50.866;12.750;2023-02-15T02:27:17;-1.80;94.80
4376;DHT22;2202;50.866;12.750;2023-02-15T02:30:31;-1.80;95.30
4376;DHT22;2202;50.866;12.750;2023-02-15T02:33:14;-1.80;95.40
4376;DHT22;2202;50.866;12.750;2023-02-15T02:35:49;-1.80;95.40
4376;DHT22;2202;50.866;12.750;2023-02-15T02:38:27;-1.80;95.40
4376;DHT22;2202;50.866;12.750;2023-02-15T02:41:00;-1.80;95.60
4376;DHT22;2202;50.866;12.750;2023-02-15T02:43:37;-1.80;96.00
4376;DHT22;2202;50.866;12.750;2023-02-15T02:46:08;-1.80;96.00
4376;DHT22;2202;50.866;12.750;2023-02-15T02:48:39;-1.80;96.00
4376;DHT22;2202;50.866;12.750;2023-02-15T02:51:06;-1.80;96.00
4376;DHT22;2202;50.866;12.750;2023-02-15T02:53:33;-1.80;95.90
4376;DHT22;2202;50.866;12.750;2023-02-15T02:56:06;-1.70;95.80
4376;DHT22;2202;50.866;12.750;2023-02-15T02:58:39;-1.80;95.70
4376;DHT22;2202;50.866;12.750;2023-02-15T03:01:11;-1.80;95.60
4376;DHT22;2202;50.866;12.750;2023-02-15T03:03:43;-1.90;95.60
4376;DHT22;2202;50.866;12.750;2023-02-15T03:06:13;-1.90;95.70
4376;DHT22;2202;50.866;12.750;2023-02-15T03:08:47;-1.90;95.70
4376;DHT22;2202;50.866;12.750;2023-02-15T03:11:15;-1.90;95.60
4376;DHT22;2202;50.866;12.750;2023-02-15T03:13:43;-1.90;95.50
4376;DHT22;2202;50.866;12.750;2023-02-15T03:16:12;-1.90;95.40
4376;DHT22;2202;50.866;12.750;2023-02-15T03:19:00;-1.90;95.30
4376;DHT22;2202;50.866;12.750;2023-02-15T03:21:32;-1.90;95.30
4376;DHT22;2202;50.866;12.750;2023-02-15T03:24:04;-2.00;95.20
4376;DHT22;2202;50.866;12.750;2023-02-15T03:26:34;-2.00;95.10
4376;DHT22;2202;50.866;12.750;2023-02-15T03:29:04;-2.00;95.10
4376;DHT22;2202;50.866;12.750;2023-02-15T03:31:35;-2.00;95.00
4376;DHT22;2202;50.866;12.750;2023-02-15T03:34:07;-2.00;95.00
4376;DHT22;2202;50.866;12.750;2023-02-15T03:36:41;-2.00;94.90
4376;DHT22;2202;50.866;12.750;2023-02-15T03:39:16;-2.10;94.90
4376;DHT22;2202;50.866;12.750;2023-02-15T03:41:48;-2.10;94.90
4376;DHT22;2202;50.866;12.750;2023-02-15T03:44:19;-2.10;94.90
4376;DHT22;2202;50.866;12.750;2023-02-15T03:46:54;-2.10;94.90
4376;DHT22;2202;50.866;12.750;2023-02-15T03:49:27;-2.10;94.90
4376;DHT22;2202;50.866;12.750;2023-02-15T03:51:56;-2.10;94.90
4376;DHT22;2202;50.866;12.750;2023-02-15T03:54:26;-2.10;94.80
4376;DHT22;2202;50.866;12.750;2023-02-15T03:57:11;-2.10;94.80
4376;DHT22;2202;50.866;12.750;2023-02-15T03:59:57;-2.10;94.80
4376;DHT22;2202;50.866;12.750;2023-02-15T04:02:53;-2.20;94.80
4376;DHT22;2202;50.866;12.750;2023-02-15T04:05:26;-2.20;94.80
4376;DHT22;2202;50.866;12.750;2023-02-15T04:07:53;-2.20;94.80
4376;DHT22;2202;50.866;12.750;2023-02-15T04:10:20;-2.20;94.90
4376;DHT22;2202;50.866;12.750;2023-02-15T04:13:04;-2.20;95.00
4376;DHT22;2202;50.866;12.750;2023-02-15T04:15:31;-2.20;95.00
4376;DHT22;2202;50.866;12.750;2023-02-15T04:18:15;-2.20;95.00
4376;DHT22;2202;50.866;12.750;2023-02-15T04:20:45;-2.20;95.00
4376;DHT22;2202;50.866;12.750;2023-02-15T04:23:29;-2.20;95.00
4376;DHT22;2202;50.866;12.750;2023-02-15T04:26:13;-2.20;95.00
4376;DHT22;2202;50.866;12.750;2023-02-15T04:28:40;-2.20;94.90
4376;DHT22;2202;50.866;12.750;2023-02-15T04:31:07;-2.20;94.90
4376;DHT22;2202;50.866;12.750;2023-02-15T04:33:34;-2.20;95.00
4376;DHT22;2202;50.866;12.750;2023-02-15T04:36:04;-2.20;95.00
4376;DHT22;2202;50.866;12.750;2023-02-15T04:38:31;-2.30;95.00
4376;DHT22;2202;50.866;12.750;2023-02-15T04:40:58;-2.30;95.00
4376;DHT22;2202;50.866;12.750;2023-02-15T04:43:25;-2.30;95.00
4376;DHT22;2202;50.866;12.750;2023-02-15T04:45:52;-2.30;95.00
4376;DHT22;2202;50.866;12.750;2023-02-15T04:48:18;-2.30;94.90
4376;DHT22;2202;50.866;12.750;2023-02-15T04:50:45;-2.30;94.90
4376;DHT22;2202;50.866;12.750;2023-02-15T04:53:14;-2.30;94.90
4376;DHT22;2202;50.866;12.750;2023-02-15T04:55:42;-2.30;94.90
4376;DHT22;2202;50.866;12.750;2023-02-15T04:58:09;-2.30;94.90
4376;DHT22;2202;50.866;12.750;2023-02-15T05:00:36;-2.30;95.00
4376;DHT22;2202;50.866;12.750;2023-02-15T05:03:03;-2.30;95.10
4376;DHT22;2202;50.866;12.750;2023-02-15T05:05:30;-2.30;95.10
4376;DHT22;2202;50.866;12.750;2023-02-15T05:07:57;-2.30;95.10
4376;DHT22;2202;50.866;12.750;2023-02-15T05:10:25;-2.30;95.10
4376;DHT22;2202;50.866;12.750;2023-02-15T05:12:52;-2.30;95.10
4376;DHT22;2202;50.866;12.750;2023-02-15T05:15:19;-2.40;95.10
4376;DHT22;2202;50.866;12.750;2023-02-15T05:17:46;-2.40;95.20
4376;DHT22;2202;50.866;12.750;2023-02-15T05:20:13;-2.40;95.40
4376;DHT22;2202;50.866;12.750;2023-02-15T05:22:39;-2.40;95.80
4376;DHT22;2202;50.866;12.750;2023-02-15T05:25:08;-2.40;96.10
4376;DHT22;2202;50.866;12.750;2023-02-15T05:27:54;-2.40;96.20
4376;DHT22;2202;50.866;12.750;2023-02-15T05:30:38;-2.40;96.10
4376;DHT22;2202;50.866;12.750;2023-02-15T05:33:06;-2.40;96.00
4376;DHT22;2202;50.866;12.750;2023-02-15T05:35:33;-2.30;95.90
4376;DHT22;2202;50.866;12.750;2023-02-15T05:38:00;-2.30;95.80
4376;DHT22;2202;50.866;12.750;2023-02-15T05:40:27;-2.30;95.80
4376;DHT22;2202;50.866;12.750;2023-02-15T05:42:55;-2.30;95.70
4376;DHT22;2202;50.866;12.750;2023-02-15T05:45:22;-2.30;95.50
4376;DHT22;2202;50.866;12.750;2023-02-15T05:47:50;-2.30;95.50
4376;DHT22;2202;50.866;12.750;2023-02-15T05:50:17;-2.30;95.50
4376;DHT22;2202;50.866;12.750;2023-02-15T05:52:44;-2.30;95.40
4376;DHT22;2202;50.866;12.750;2023-02-15T05:55:11;-2.30;95.40
4376;DHT22;2202;50.866;12.750;2023-02-15T05:57:38;-2.30;95.30
4376;DHT22;2202;50.866;12.750;2023-02-15T06:00:07;-2.30;95.20
4376;DHT22;2202;50.866;12.750;2023-02-15T06:02:35;-2.40;95.20
4376;DHT22;2202;50.866;12.750;2023-02-15T06:05:03;-2.40;95.20
4376;DHT22;2202;50.866;12.750;2023-02-15T06:07:30;-2.40;95.20
4376;DHT22;2202;50.866;12.750;2023-02-15T06:09:56;-2.40;95.20
4376;DHT22;2202;50.866;12.750;2023-02-15T06:12:23;-2.40;95.10
4376;DHT22;2202;50.866;12.750;2023-02-15T06:14:50;-2.40;95.10
4376;DHT22;2202;50.866;12.750;2023-02-15T06:17:19;-2.40;95.00
4376;DHT22;2202;50.866;12.750;2023-02-15T06:19:47;-2.40;95.00
4376;DHT22;2202;50.866;12.750;2023-02-15T06:22:14;-2.50;94.90
4376;DHT22;2202;50.866;12.750;2023-02-15T06:24:41;-2.50;95.00
4376;DHT22;2202;50.866;12.750;2023-02-15T06:27:08;-2.50;95.00
4376;DHT22;2202;50.866;12.750;2023-02-15T06:29:35;-2.50;95.00
4376;DHT22;2202;50.866;12.750;2023-02-15T06:32:02;-2.40;95.20
4376;DHT22;2202;50.866;12.750;2023-02-15T06:34:31;-2.40;95.20
4376;DHT22;2202;50.866;12.750;2023-02-15T06:36:58;-2.40;95.20
4376;DHT22;2202;50.866;12.750;2023-02-15T06:39:25;-2.40;95.20
4376;DHT22;2202;50.866;12.750;2023-02-15T06:41:51;-2.40;95.10
4376;DHT22;2202;50.866;12.750;2023-02-15T06:44:18;-2.40;95.10
4376;DHT22;2202;50.866;12.750;2023-02-15T06:46:45;-2.40;95.20
4376;DHT22;2202;50.866;12.750;2023-02-15T06:49:12;-2.40;95.20
4376;DHT22;2202;50.866;12.750;2023-02-15T06:51:40;-2.30;95.20
4376;DHT22;2202;50.866;12.750;2023-02-15T06:54:07;-2.30;95.30
4376;DHT22;2202;50.866;12.750;2023-02-15T06:56:34;-2.30;95.30
4376;DHT22;2202;50.866;12.750;2023-02-15T06:59:01;-2.30;95.40
4376;DHT22;2202;50.866;12.750;2023-02-15T07:01:28;-2.20;95.40
4376;DHT22;2202;50.866;12.750;2023-02-15T07:03:55;-2.20;95.30
4376;DHT22;2202;50.866;12.750;2023-02-15T07:06:22;-2.20;95.30
4376;DHT22;2202;50.866;12.750;2023-02-15T07:08:50;-2.10;95.30
4376;DHT22;2202;50.866;12.750;2023-02-15T07:11:17;-2.10;95.40
4376;DHT22;2202;50.866;12.750;2023-02-15T07:14:01;-2.10;95.60
4376;DHT22;2202;50.866;12.750;2023-02-15T07:16:28;-2.00;95.90
4376;DHT22;2202;50.866;12.750;2023-02-15T07:18:55;-1.80;96.50
4376;DHT22;2202;50.866;12.750;2023-02-15T07:21:22;-1.70;96.80
4376;DHT22;2202;50.866;12.750;2023-02-15T07:23:50;-1.40;97.10
4376;DHT22;2202;50.866;12.750;2023-02-15T07:26:17;-1.20;97.20
4376;DHT22;2202;50.866;12.750;2023-02-15T07:28:44;-1.10;97.10
4376;DHT22;2202;50.866;12.750;2023-02-15T07:31:10;-0.90;97.00
4376;DHT22;2202;50.866;12.750;2023-02-15T07:33:37;-0.70;97.10
4376;DHT22;2202;50.866;12.750;2023-02-15T07:36:05;-0.30;97.40
4376;DHT22;2202;50.866;12.750;2023-02-15T07:38:33;0.10;97.20
4376;DHT22;2202;50.866;12.750;2023-02-15T07:41:03;0.60;97.30
4376;DHT22;2202;50.866;12.750;2023-02-15T07:43:33;1.50;97.20
4376;DHT22;2202;50.866;12.750;2023-02-15T07:46:00;2.60;95.20
4376;DHT22;2202;50.866;12.750;2023-02-15T07:48:27;3.60;92.40
4376;DHT22;2202;50.866;12.750;2023-02-15T07:50:54;4.80;90.40
4376;DHT22;2202;50.866;12.750;2023-02-15T07:53:21;5.90;83.60
4376;DHT22;2202;50.866;12.750;2023-02-15T07:55:47;6.80;76.80
4376;DHT22;2202;50.866;12.750;2023-02-15T07:58:16;7.30;70.80
4376;DHT22;2202;50.866;12.750;2023-02-15T08:00:43;7.60;66.60
4376;DHT22;2202;50.866;12.750;2023-02-15T08:03:27;8.20;66.20
4376;DHT22;2202;50.866;12.750;2023-02-15T08:05:56;8.60;63.20
4376;DHT22;2202;50.866;12.750;2023-02-15T08:08:23;8.80;59.90
4376;DHT22;2202;50.866;12.750;2023-02-15T08:10:58;8.90;60.10
4376;DHT22;2202;50.866;12.750;2023-02-15T08:13:44;8.80;59.40
4376;DHT22;2202;50.866;12.750;2023-02-15T08:16:24;8.90;59.80
4376;DHT22;2202;50.866;12.750;2023-02-15T08:18:51;9.10;59.00
4376;DHT22;2202;50.866;12.750;2023-02-15T08:21:18;9.40;55.30
4376;DHT22;2202;50.866;12.750;2023-02-15T08:23:46;9.70;50.90
4376;DHT22;2202;50.866;12.750;2023-02-15T08:26:13;9.90;52.10
4376;DHT22;2202;50.866;12.750;2023-02-15T08:28:41;9.90;54.40
4376;DHT22;2202;50.866;12.750;2023-02-15T08:31:10;10.00;53.50
4376;DHT22;2202;50.866;12.750;2023-02-15T08:33:39;10.00;53.40
4376;DHT22;2202;50.866;12.750;2023-02-15T08:36:09;9.70;49.30
4376;DHT22;2202;50.866;12.750;2023-02-15T08:38:36;9.40;49.60
4376;DHT22;2202;50.866;12.750;2023-02-15T08:41:10;9.30;49.30
4376;DHT22;2202;50.866;12.750;2023-02-15T08:43:38;9.10;47.90
4376;DHT22;2202;50.866;12.750;2023-02-15T08:46:05;8.80;49.30
4376;DHT22;2202;50.866;12.750;2023-02-15T08:48:33;8.70;50.00
4376;DHT22;2202;50.866;12.750;2023-02-15T08:51:05;8.50;46.80
4376;DHT22;2202;50.866;12.750;2023-02-15T08:53:33;8.60;50.70
4376;DHT22;2202;50.866;12.750;2023-02-15T08:56:00;8.90;47.90
4376;DHT22;2202;50.866;12.750;2023-02-15T08:58:28;9.10;45.00
4376;DHT22;2202;50.866;12.750;2023-02-15T09:00:56;9.20;45.00
4376;DHT22;2202;50.866;12.750;2023-02-15T09:03:23;9.30;45.40
4376;DHT22;2202;50.866;12.750;2023-02-15T09:05:57;9.40;42.20
4376;DHT22;2202;50.866;12.750;2023-02-15T09:08:24;9.40;45.00
4376;DHT22;2202;50.866;12.750;2023-02-15T09:10:51;9.50;41.80
4376;DHT22;2202;50.866;12.750;2023-02-15T09:13:19;9.30;39.50
4376;DHT22;2202;50.866;12.750;2023-02-15T09:15:46;9.40;43.10
4376;DHT22;2202;50.866;12.750;2023-02-15T09:18:13;9.50;47.90
4376;DHT22;2202;50.866;12.750;2023-02-15T09:20:43;9.60;42.40
4376;DHT22;2202;50.866;12.750;2023-02-15T09:23:11;9.60;41.80
4376;DHT22;2202;50.866;12.750;2023-02-15T09:25:38;9.50;40.60
4376;DHT22;2202;50.866;12.750;2023-02-15T09:28:05;9.60;42.20
4376;DHT22;2202;50.866;12.750;2023-02-15T09:30:31;9.60;44.10
4376;DHT22;2202;50.866;12.750;2023-02-15T09:32:58;9.70;44.50
4376;DHT22;2202;50.866;12.750;2023-02-15T09:35:25;9.60;40.80
4376;DHT22;2202;50.866;12.750;2023-02-15T09:37:52;9.70;45.20
4376;DHT22;2202;50.866;12.750;2023-02-15T09:40:20;9.70;40.40
4376;DHT22;2202;50.866;12.750;2023-02-15T09:43:02;9.80;39.00
4376;DHT22;2202;50.866;12.750;2023-02-15T09:45:39;9.80;40.90
4376;DHT22;2202;50.866;12.750;2023-02-15T09:48:25;10.00;43.60
4376;DHT22;2202;50.866;12.750;2023-02-15T09:51:06;10.20;42.90
4376;DHT22;2202;50.866;12.750;2023-02-15T09:53:54;10.30;40.20
4376;DHT22;2202;50.866;12.750;2023-02-15T09:56:31;10.40;36.00
4376;DHT22;2202;50.866;12.750;2023-02-15T09:59:08;10.50;31.00
4376;DHT22;2202;50.866;12.750;2023-02-15T10:01:43;10.60;34.90
4376;DHT22;2202;50.866;12.750;2023-02-15T10:04:31;10.70;35.60
4376;DHT22;2202;50.866;12.750;2023-02-15T10:07:12;10.80;35.60
4376;DHT22;2202;50.866;12.750;2023-02-15T10:10:01;10.90;36.70
4376;DHT22;2202;50.866;12.750;2023-02-15T10:12:43;11.00;38.30
4376;DHT22;2202;50.866;12.750;2023-02-15T10:15:31;11.00;39.30
4376;DHT22;2202;50.866;12.750;2023-02-15T10:18:29;11.10;39.30
4376;DHT22;2202;50.866;12.750;2023-02-15T10:21:00;10.80;39.30
4376;DHT22;2202;50.866;12.750;2023-02-15T10:23:48;10.70;40.40
4376;DHT22;2202;50.866;12.750;2023-02-15T10:26:19;10.60;42.40
4376;DHT22;2202;50.866;12.750;2023-02-15T10:28:50;10.70;42.00
4376;DHT22;2202;50.866;12.750;2023-02-15T10:31:25;10.80;43.20
4376;DHT22;2202;50.866;12.750;2023-02-15T10:34:07;10.90;42.50
4376;DHT22;2202;50.866;12.750;2023-02-15T10:39:48;10.80;41.30
4376;DHT22;2202;50.866;12.750;2023-02-15T10:42:26;10.40;43.40
4376;DHT22;2202;50.866;12.750;2023-02-15T10:45:10;10.40;43.20
4376;DHT22;2202;50.866;12.750;2023-02-15T10:47:55;10.40;44.30
4376;DHT22;2202;50.866;12.750;2023-02-15T10:50:33;10.50;44.80
4376;DHT22;2202;50.866;12.750;2023-02-15T10:53:19;10.60;46.80
4376;DHT22;2202;50.866;12.750;2023-02-15T10:55:54;10.60;46.40
4376;DHT22;2202;50.866;12.750;2023-02-15T10:58:31;10.60;48.40
4376;DHT22;2202;50.866;12.750;2023-02-15T11:01:08;10.40;48.40
4376;DHT22;2202;50.866;12.750;2023-02-15T11:03:48;10.30;50.70
4376;DHT22;2202;50.866;12.750;2023-02-15T11:06:22;10.40;51.20
4376;DHT22;2202;50.866;12.750;2023-02-15T11:08:52;10.50;49.80
4376;DHT22;2202;50.866;12.750;2023-02-15T11:11:23;10.30;50.90
4376;DHT22;2202;50.866;12.750;2023-02-15T11:13:58;10.00;52.50
4376;DHT22;2202;50.866;12.750;2023-02-15T11:16:31;10.00;52.70
4376;DHT22;2202;50.866;12.750;2023-02-15T11:19:03;10.10;53.50
4376;DHT22;2202;50.866;12.750;2023-02-15T11:21:36;10.30;51.60
4376;DHT22;2202;50.866;12.750;2023-02-15T11:24:09;10.60;51.80
4376;DHT22;2202;50.866;12.750;2023-02-15T11:26:38;10.60;51.10
4376;DHT22;2202;50.866;12.750;2023-02-15T11:29:10;10.60;48.20
4376;DHT22;2202;50.866;12.750;2023-02-15T11:31:44;10.60;46.40
4376;DHT22;2202;50.866;12.750;2023-02-15T11:34:17;10.70;45.20
4376;DHT22;2202;50.866;12.750;2023-02-15T11:36:47;10.60;44.70
4376;DHT22;2202;50.866;12.750;2023-02-15T11:39:17;10.50;45.20
4376;DHT22;2202;50.866;12.750;2023-02-15T11:41:47;10.50;47.00
4376;DHT22;2202;50.866;12.750;2023-02-15T11:44:20;10.50;47.00
4376;DHT22;2202;50.866;12.750;2023-02-15T11:46:50;10.70;48.40
4376;DHT22;2202;50.866;12.750;2023-02-15T11:49:23;10.70;44.70
4376;DHT22;2202;50.866;12.750;2023-02-15T11:51:51;10.70;46.30
4376;DHT22;2202;50.866;12.750;2023-02-15T11:54:20;10.70;45.20
4376;DHT22;2202;50.866;12.750;2023-02-15T11:56:48;10.80;48.00
4376;DHT22;2202;50.866;12.750;2023-02-15T11:59:21;10.80;46.10
4376;DHT22;2202;50.866;12.750;2023-02-15T12:01:52;10.80;46.60
4376;DHT22;2202;50.866;12.750;2023-02-15T12:04:22;10.90;45.60
4376;DHT22;2202;50.866;12.750;2023-02-15T12:06:54;11.00;46.10
4376;DHT22;2202;50.866;12.750;2023-02-15T12:09:30;11.10;45.60
4376;DHT22;2202;50.866;12.750;2023-02-15T12:12:19;11.10;44.80
4376;DHT22;2202;50.866;12.750;2023-02-15T12:14:48;11.10;45.60
4376;DHT22;2202;50.866;12.750;2023-02-15T12:17:18;11.10;45.20
4376;DHT22;2202;50.866;12.750;2023-02-15T12:19:46;11.30;45.60
4376;DHT22;2202;50.866;12.750;2023-02-15T12:22:21;11.20;46.10
4376;DHT22;2202;50.866;12.750;2023-02-15T12:24:51;11.20;44.30
4376;DHT22;2202;50.866;12.750;2023-02-15T12:27:21;11.00;45.20
4376;DHT22;2202;50.866;12.750;2023-02-15T12:29:50;11.20;47.00
4376;DHT22;2202;50.866;12.750;2023-02-15T12:32:22;11.10;42.90
4376;DHT22;2202;50.866;12.750;2023-02-15T12:34:50;11.10;44.10
4376;DHT22;2202;50.866;12.750;2023-02-15T12:37:22;11.10;43.40
4376;DHT22;2202;50.866;12.750;2023-02-15T12:39:52;11.10;43.10
4376;DHT22;2202;50.866;12.750;2023-02-15T12:45:01;11.00;42.70
4376;DHT22;2202;50.866;12.750;2023-02-15T12:47:30;11.10;44.10
4376;DHT22;2202;50.866;12.750;2023-02-15T12:50:12;11.10;43.20
4376;DHT22;2202;50.866;12.750;2023-02-15T12:52:44;11.20;42.90
4376;DHT22;2202;50.866;12.750;2023-02-15T12:55:20;11.40;40.20
4376;DHT22;2202;50.866;12.750;2023-02-15T12:57:47;11.30;38.60
4376;DHT22;2202;50.866;12.750;2023-02-15T13:00:27;11.10;39.00
4376;DHT22;2202;50.866;12.750;2023-02-15T13:02:59;11.00;39.50
4376;DHT22;2202;50.866;12.750;2023-02-15T13:05:31;11.10;39.70
4376;DHT22;2202;50.866;12.750;2023-02-15T13:08:00;11.00;40.40
4376;DHT22;2202;50.866;12.750;2023-02-15T13:10:31;11.10;41.30
4376;DHT22;2202;50.866;12.750;2023-02-15T13:13:00;11.30;39.20
4376;DHT22;2202;50.866;12.750;2023-02-15T13:15:33;11.50;40.10
4376;DHT22;2202;50.866;12.750;2023-02-15T13:18:03;11.60;38.80
4376;DHT22;2202;50.866;12.750;2023-02-15T13:20:32;11.60;36.90
4376;DHT22;2202;50.866;12.750;2023-02-15T13:23:04;11.60;40.80
4376;DHT22;2202;50.866;12.750;2023-02-15T13:25:38;11.80;39.20
4376;DHT22;2202;50.866;12.750;2023-02-15T13:28:13;11.90;39.90
4376;DHT22;2202;50.866;12.750;2023-02-15T13:30:44;12.00;40.10
4376;DHT22;2202;50.866;12.750;2023-02-15T13:33:19;12.10;38.50
4376;DHT22;2202;50.866;12.750;2023-02-15T13:36:02;12.00;38.60
4376;DHT22;2202;50.866;12.750;2023-02-15T13:38:55;11.90;39.00
4376;DHT22;2202;50.866;12.750;2023-02-15T13:41:30;11.90;39.30
4376;DHT22;2202;50.866;12.750;2023-02-15T13:44:06;11.80;38.10
4376;DHT22;2202;50.866;12.750;2023-02-15T13:46:45;11.90;39.30
4376;DHT22;2202;50.866;12.750;2023-02-15T13:49:31;12.00;39.30
4376;DHT22;2202;50.866;12.750;2023-02-15T13:52:11;11.90;39.20
4376;DHT22;2202;50.866;12.750;2023-02-15T13:57:44;12.00;39.20
4376;DHT22;2202;50.866;12.750;2023-02-15T14:00:20;12.10;39.00
4376;DHT22;2202;50.866;12.750;2023-02-15T14:03:18;12.20;38.30
4376;DHT22;2202;50.866;12.750;2023-02-15T14:06:05;12.30;39.50
4376;DHT22;2202;50.866;12.750;2023-02-15T14:08:54;12.10;37.60
4376;DHT22;2202;50.866;12.750;2023-02-15T14:11:30;12.20;36.50
4376;DHT22;2202;50.866;12.750;2023-02-15T14:14:27;12.30;32.10
4376;DHT22;2202;50.866;12.750;2023-02-15T14:17:04;12.10;30.30
4376;DHT22;2202;50.866;12.750;2023-02-15T14:19:39;12.00;31.20
4376;DHT22;2202;50.866;12.750;2023-02-15T14:22:15;11.80;31.00
4376;DHT22;2202;50.866;12.750;2023-02-15T14:24:52;11.80;32.40
4376;DHT22;2202;50.866;12.750;2023-02-15T14:27:26;11.90;35.40
4376;DHT22;2202;50.866;12.750;2023-02-15T14:29:56;11.90;34.60
4376;DHT22;2202;50.866;12.750;2023-02-15T14:32:29;11.90;35.60
4376;DHT22;2202;50.866;12.750;2023-02-15T14:34:59;12.00;37.60
4376;DHT22;2202;50.866;12.750;2023-02-15T14:37:39;11.90;37.20
4376;DHT22;2202;50.866;12.750;2023-02-15T14:40:12;11.80;37.60
4376;DHT22;2202;50.866;12.750;2023-02-15T14:43:07;11.70;40.20
4376;DHT22;2202;50.866;12.750;2023-02-15T14:45:39;11.70;40.90
4376;DHT22;2202;50.866;12.750;2023-02-15T14:48:12;11.70;41.50
4376;DHT22;2202;50.866;12.750;2023-02-15T14:50:46;11.80;40.90
4376;DHT22;2202;50.866;12.750;2023-02-15T14:53:33;11.70;41.70
4376;DHT22;2202;50.866;12.750;2023-02-15T14:56:06;11.70;43.10
4376;DHT22;2202;50.866;12.750;2023-02-15T14:58:33;11.80;41.70
4376;DHT22;2202;50.866;12.750;2023-02-15T15:01:04;11.90;41.70
4376;DHT22;2202;50.866;12.750;2023-02-15T15:03:33;11.90;43.80
4376;DHT22;2202;50.866;12.750;2023-02-15T15:06:02;11.50;43.40
4376;DHT22;2202;50.866;12.750;2023-02-15T15:08:33;11.10;43.10
4376;DHT22;2202;50.866;12.750;2023-02-15T15:14:07;11.00;42.90
4376;DHT22;2202;50.866;12.750;2023-02-15T15:16:49;11.00;43.60
4376;DHT22;2202;50.866;12.750;2023-02-15T15:22:34;11.10;43.20
4376;DHT22;2202;50.866;12.750;2023-02-15T15:25:04;11.20;40.90
4376;DHT22;2202;50.866;12.750;2023-02-15T15:27:55;11.20;41.10
4376;DHT22;2202;50.866;12.750;2023-02-15T15:30:47;11.10;42.20
4376;DHT22;2202;50.866;12.750;2023-02-15T15:33:29;11.00;43.60
4376;DHT22;2202;50.866;12.750;2023-02-15T15:39:02;10.80;43.20
4376;DHT22;2202;50.866;12.750;2023-02-15T15:41:40;10.70;44.80
4376;DHT22;2202;50.866;12.750;2023-02-15T15:44:21;10.70;44.00
4376;DHT22;2202;50.866;12.750;2023-02-15T15:47:16;10.60;45.00
4376;DHT22;2202;50.866;12.750;2023-02-15T15:49:46;10.40;46.10
4376;DHT22;2202;50.866;12.750;2023-02-15T15:52:15;10.30;45.70
4376;DHT22;2202;50.866;12.750;2023-02-15T15:54:43;10.20;46.40
4376;DHT22;2202;50.866;12.750;2023-02-15T15:57:19;9.80;47.20
4376;DHT22;2202;50.866;12.750;2023-02-15T15:59:46;9.40;47.90
4376;DHT22;2202;50.866;12.750;2023-02-15T16:02:16;9.00;48.40
4376;DHT22;2202;50.866;12.750;2023-02-15T16:04:44;8.80;49.60
4376;DHT22;2202;50.866;12.750;2023-02-15T16:07:24;8.70;49.60
4376;DHT22;2202;50.866;12.750;2023-02-15T16:09:56;8.50;50.30
4376;DHT22;2202;50.866;12.750;2023-02-15T16:12:25;8.60;50.20
4376;DHT22;2202;50.866;12.750;2023-02-15T16:14:54;8.50;50.50
4376;DHT22;2202;50.866;12.750;2023-02-15T16:17:24;8.40;51.20
4376;DHT22;2202;50.866;12.750;2023-02-15T16:20:00;8.30;51.80
4376;DHT22;2202;50.866;12.750;2023-02-15T16:22:28;8.30;52.30
4376;DHT22;2202;50.866;12.750;2023-02-15T16:25:21;8.10;52.80
4376;DHT22;2202;50.866;12.750;2023-02-15T16:27:53;8.10;52.80
4376;DHT22;2202;50.866;12.750;2023-02-15T16:30:26;8.10;53.20
4376;DHT22;2202;50.866;12.750;2023-02-15T16:32:54;8.00;54.30
4376;DHT22;2202;50.866;12.750;2023-02-15T16:35:22;7.90;56.00
4376;DHT22;2202;50.866;12.750;2023-02-15T16:37:49;7.80;56.20
4376;DHT22;2202;50.866;12.750;2023-02-15T16:43:20;7.50;57.30
4376;DHT22;2202;50.866;12.750;2023-02-15T16:45:48;7.30;58.20
4376;DHT22;2202;50.866;12.750;2023-02-15T16:48:19;7.10;58.90